MSC Cordoba — A8OF8 — position and weather

sailwx.info

Track history (hours):
 
Tides and Currents Weather Stations Pressure Air Temp Water Temp Dewpoint Dewpoint Depression Visibility Wind Speed Wind Dir Waves Ship Positions

MSC Cordoba

Last reported at 2014-Oct-21 13:33 UTC. Time now 2014-Oct-21 13:44 UTC.
Position N 53°35' E 008°32'.

Length 274 m; draft 11.7 m.

Type: Ship (hazmat cat A). MMSI: 636091473.

Date/timePositionNaut miles runAvg speedWind from/ knotsBaromVisibWave heightAir tempDewpointWater temp
2014-Oct-21 13:33N 53°35' E 008°32'0 0.0
2014-Oct-21 12:32N 53°35' E 008°32'0 0.0
2014-Oct-21 11:32N 53°35' E 008°32'2 2.4
2014-Oct-21 10:33N 53°37' E 008°30'1615.7
2014-Oct-21 09:33N 53°47' E 008°10'1616.3
2014-Oct-21 08:33N 53°53' E 007°44'4514.5
2014-Oct-21 05:24N 53°46' E 006°28'1820.2
2014-Oct-21 04:32N 53°41' E 005°59'2020.2
2014-Oct-21 03:33N 53°36' E 005°27'2020.5
2014-Oct-21 02:33N 53°29' E 004°55'1919.1
2014-Oct-21 01:33N 53°14' E 004°35'4720.0
2014-Oct-20 23:13N 52°34' E 003°53'1319.6
2014-Oct-20 22:33N 52°27' E 003°35'1918.5
2014-Oct-20 21:33N 52°09' E 003°26'2018.4
2014-Oct-20 20:29N 51°50' E 003°20'1314.0
2014-Oct-20 19:33N 51°38' E 003°11'1514.9
2014-Oct-20 18:33N 51°25' E 002°60'1414.4
2014-Oct-20 17:33N 51°25' E 003°23'1111.4
2014-Oct-20 16:33N 51°26' E 003°41'1010.4
2014-Oct-20 15:33N 51°25' E 003°58'1010.1
2014-Oct-20 14:33N 51°22' E 004°13'3 2.6
2014-Oct-20 13:33N 51°21' E 004°17'1 0.6
2014-Oct-20 12:33N 51°21' E 004°18'1 1.3
2014-Oct-20 11:30N 51°19' E 004°19'0 0.0
2014-Oct-20 10:32N 51°19' E 004°19'0 0.0
2014-Oct-20 09:33N 51°19' E 004°19'0 0.0
2014-Oct-20 08:30N 51°19' E 004°19'0 0.0
2014-Oct-20 07:32N 51°19' E 004°19'0 0.0
2014-Oct-20 06:32N 51°19' E 004°19'0 0.0
2014-Oct-20 05:31N 51°19' E 004°19'0 0.0
2014-Oct-20 04:31N 51°19' E 004°19'0 0.0
2014-Oct-20 03:30N 51°19' E 004°19'0 0.0
2014-Oct-20 02:33N 51°19' E 004°19'0 0.0
2014-Oct-20 01:30N 51°19' E 004°19'0 0.0
2014-Oct-20 00:29N 51°19' E 004°19'0 0.0
2014-Oct-19 23:17N 51°19' E 004°19'0 0.0
2014-Oct-19 22:28N 51°19' E 004°19'0 0.0
2014-Oct-19 21:28N 51°19' E 004°19'0 0.0
2014-Oct-19 20:33N 51°19' E 004°19'0 0.0
2014-Oct-19 19:33N 51°19' E 004°19'0 0.0
2014-Oct-19 18:33N 51°19' E 004°19'0 0.0
2014-Oct-19 17:32N 51°19' E 004°19'0 0.0
2014-Oct-19 16:32N 51°19' E 004°19'0 0.0
2014-Oct-19 15:25N 51°19' E 004°19'0 0.0
2014-Oct-19 14:31N 51°19' E 004°19'0 0.0
2014-Oct-19 13:27N 51°19' E 004°19'1 0.8
2014-Oct-19 12:34N 51°20' E 004°18'1 0.9
2014-Oct-19 11:34N 51°21' E 004°17'2 2.0
2014-Oct-19 10:33N 51°21' E 004°14'10 9.8
2014-Oct-19 09:33N 51°26' E 004°01'1111.3
2014-Oct-19 08:33N 51°24' E 003°43'1010.1
2014-Oct-19 07:34N 51°25' E 003°26'1514.9
2014-Oct-19 06:33N 51°24' E 003°02'1312.7
2014-Oct-19 05:32N 51°22' E 002°42'7 3.1
2014-Oct-19 03:26N 51°26' E 002°34'0 0.1
2014-Oct-19 02:31N 51°26' E 002°34'0 0.0
2014-Oct-19 01:13N 51°26' E 002°34'0 0.0
2014-Oct-19 00:25N 51°26' E 002°34'0 0.0
2014-Oct-18 23:15N 51°26' E 002°34'0 0.1
2014-Oct-18 22:26N 51°26' E 002°34'7 7.2
2014-Oct-18 21:32N 51°21' E 002°26'1919.5
2014-Oct-18 20:34N 51°12' E 001°59'2221.5
2014-Oct-18 19:33N 50°58' E 001°33'9320.7
2014-Oct-18 15:03N 49°46' W 000°00'918.9
2014-Oct-18 14:34N 49°37' W 000°03'1211.6
2014-Oct-18 13:34N 49°28' E 000°08'1 0.5
2014-Oct-18 12:24N 49°28' E 000°08'0 0.0
2014-Oct-18 11:30N 49°28' E 000°08'0 0.0
2014-Oct-18 10:29N 49°28' E 000°08'0 0.0
2014-Oct-18 09:30N 49°28' E 000°08'0 0.0
2014-Oct-18 08:30N 49°28' E 000°08'0 0.0
2014-Oct-18 07:29N 49°28' E 000°08'0 0.0
2014-Oct-18 06:29N 49°28' E 000°08'0 0.0
2014-Oct-18 05:32N 49°28' E 000°08'0 0.0
2014-Oct-18 04:28N 49°28' E 000°08'0 0.0
2014-Oct-18 03:28N 49°28' E 000°08'0 0.0
2014-Oct-18 02:33N 49°28' E 000°08'4 4.3
2014-Oct-18 01:33N 49°30' E 000°03'8 8.3
2014-Oct-18 00:34N 49°35' W 000°07'1211.5
2014-Oct-17 23:33N 49°47' W 000°09'5814.6
2014-Oct-17 19:33N 50°36' E 000°39'3617.6
2014-Oct-17 17:30N 50°59' E 001°23'1717.6
2014-Oct-17 16:33N 51°11' E 001°42'1918.5
2014-Oct-17 15:33N 51°28' E 001°56'1919.0
2014-Oct-17 14:33N 51°41' E 002°17'45618.2
2014-Oct-16 13:33N 57°49' E 010°03'1818.1
2014-Oct-16 12:33N 57°52' E 010°37'1818.1
2014-Oct-16 11:33N 57°40' E 011°02'1918.7
2014-Oct-16 10:33N 57°27' E 011°27'2120.0
2014-Oct-16 09:30N 57°07' E 011°40'2122.0
2014-Oct-16 08:33N 56°48' E 011°54'12317.4
2014-Oct-16 01:28N 54°50' E 010°50'1111.6
2014-Oct-16 00:32N 54°39' E 010°51'2418.7
2014-Oct-15 23:16N 54°30' E 011°30'1520.7
2014-Oct-15 22:33N 54°26' E 011°54'10818.0
2014-Oct-15 16:34N 54°45' E 014°57'2121.1
2014-Oct-15 15:33N 54°53' E 015°31'1017.6
2014-Oct-15 15:00N 54°54' E 015°48'140 2.9 080 / 131008.0 5.4 1.015.011.614.0
2014-Oct-13 15:16N 55°17' E 019°50'1319.0
2014-Oct-13 14:34N 55°09' E 019°31'1918.5
2014-Oct-13 13:34N 54°55' E 019°10'2019.6
2014-Oct-13 12:33N 54°37' E 018°55'1313.0
2014-Oct-13 11:33N 54°32' E 018°35'2 2.3
2014-Oct-13 10:33N 54°33' E 018°31'0 0.0
2014-Oct-13 09:32N 54°33' E 018°31'0 0.0
2014-Oct-13 08:29N 54°33' E 018°31'0 0.0
2014-Oct-13 07:31N 54°33' E 018°31'0 0.0
2014-Oct-13 06:31N 54°33' E 018°31'0 0.0
2014-Oct-13 05:33N 54°33' E 018°31'0 0.0
2014-Oct-13 04:33N 54°33' E 018°31'0 0.0
2014-Oct-13 03:33N 54°33' E 018°31'0 0.0
2014-Oct-13 02:32N 54°33' E 018°31'0 0.0
2014-Oct-13 01:32N 54°33' E 018°31'0 0.0
2014-Oct-13 00:31N 54°33' E 018°31'0 0.0
2014-Oct-12 23:31N 54°33' E 018°31'0 0.0
2014-Oct-12 22:33N 54°33' E 018°31'0 0.0
2014-Oct-12 21:33N 54°33' E 018°31'0 0.0
2014-Oct-12 20:26N 54°33' E 018°31'0 0.0
2014-Oct-12 19:32N 54°33' E 018°31'0 0.0
2014-Oct-12 18:29N 54°33' E 018°31'0 0.0
2014-Oct-12 17:31N 54°33' E 018°31'0 0.0
2014-Oct-12 16:31N 54°33' E 018°31'0 0.0
2014-Oct-12 15:33N 54°33' E 018°31'0 0.0
2014-Oct-12 14:33N 54°33' E 018°31'0 0.0
2014-Oct-12 13:33N 54°33' E 018°31'0 0.0
2014-Oct-12 12:32N 54°33' E 018°31'0 0.0
2014-Oct-12 11:32N 54°33' E 018°31'0 0.0
2014-Oct-12 10:31N 54°33' E 018°31'0 0.0
2014-Oct-12 09:31N 54°33' E 018°31'0 0.0
2014-Oct-12 08:33N 54°33' E 018°31'0 0.0
2014-Oct-12 07:33N 54°33' E 018°31'0 0.0
2014-Oct-12 06:32N 54°33' E 018°31'0 0.0
2014-Oct-12 05:32N 54°33' E 018°31'0 0.0
2014-Oct-12 04:29N 54°33' E 018°31'0 0.0
2014-Oct-12 03:31N 54°33' E 018°31'0 0.0
2014-Oct-12 02:31N 54°33' E 018°31'0 0.0
2014-Oct-12 01:33N 54°33' E 018°31'0 0.0
2014-Oct-12 00:33N 54°33' E 018°31'0 0.0
2014-Oct-11 23:32N 54°33' E 018°31'0 0.0
2014-Oct-11 22:32N 54°33' E 018°31'0 0.0
2014-Oct-11 21:32N 54°33' E 018°31'0 0.0
2014-Oct-11 20:31N 54°33' E 018°31'0 0.0
2014-Oct-11 19:31N 54°33' E 018°31'0 0.0
2014-Oct-11 18:33N 54°33' E 018°31'0 0.0
2014-Oct-11 17:33N 54°33' E 018°31'0 0.0
2014-Oct-11 16:32N 54°33' E 018°31'0 0.0
2014-Oct-11 15:32N 54°33' E 018°31'0 0.0
2014-Oct-11 14:29N 54°33' E 018°31'  
Track history (hours):
 
Tides and Currents Weather Stations Pressure Air Temp Water Temp Dewpoint Dewpoint Depression Visibility Wind Speed Wind Dir Waves Ship Positions

MSC Cordoba

Last reported at 2014-Oct-21 13:33 UTC. Time now 2014-Oct-21 13:44 UTC.
Position N 53°35' E 008°32'.

Length 274 m; draft 11.7 m.

Type: Ship (hazmat cat A). MMSI: 636091473.

Date/timePositionNaut miles runAvg speedWind from/ knotsBaromVisibWave heightAir tempDewpointWater temp
2014-Oct-21 13:33N 53°35' E 008°32'0 0.0
2014-Oct-21 12:32N 53°35' E 008°32'0 0.0
2014-Oct-21 11:32N 53°35' E 008°32'2 2.4
2014-Oct-21 10:33N 53°37' E 008°30'1615.7
2014-Oct-21 09:33N 53°47' E 008°10'1616.3
2014-Oct-21 08:33N 53°53' E 007°44'4514.5
2014-Oct-21 05:24N 53°46' E 006°28'1820.2
2014-Oct-21 04:32N 53°41' E 005°59'2020.2
2014-Oct-21 03:33N 53°36' E 005°27'2020.5
2014-Oct-21 02:33N 53°29' E 004°55'1919.1
2014-Oct-21 01:33N 53°14' E 004°35'4720.0
2014-Oct-20 23:13N 52°34' E 003°53'1319.6
2014-Oct-20 22:33N 52°27' E 003°35'1918.5
2014-Oct-20 21:33N 52°09' E 003°26'2018.4
2014-Oct-20 20:29N 51°50' E 003°20'1314.0
2014-Oct-20 19:33N 51°38' E 003°11'1514.9
2014-Oct-20 18:33N 51°25' E 002°60'1414.4
2014-Oct-20 17:33N 51°25' E 003°23'1111.4
2014-Oct-20 16:33N 51°26' E 003°41'1010.4
2014-Oct-20 15:33N 51°25' E 003°58'1010.1
2014-Oct-20 14:33N 51°22' E 004°13'3 2.6
2014-Oct-20 13:33N 51°21' E 004°17'1 0.6
2014-Oct-20 12:33N 51°21' E 004°18'1 1.3
2014-Oct-20 11:30N 51°19' E 004°19'0 0.0
2014-Oct-20 10:32N 51°19' E 004°19'0 0.0
2014-Oct-20 09:33N 51°19' E 004°19'0 0.0
2014-Oct-20 08:30N 51°19' E 004°19'0 0.0
2014-Oct-20 07:32N 51°19' E 004°19'0 0.0
2014-Oct-20 06:32N 51°19' E 004°19'0 0.0
2014-Oct-20 05:31N 51°19' E 004°19'0 0.0
2014-Oct-20 04:31N 51°19' E 004°19'0 0.0
2014-Oct-20 03:30N 51°19' E 004°19'0 0.0
2014-Oct-20 02:33N 51°19' E 004°19'0 0.0
2014-Oct-20 01:30N 51°19' E 004°19'0 0.0
2014-Oct-20 00:29N 51°19' E 004°19'0 0.0
2014-Oct-19 23:17N 51°19' E 004°19'0 0.0
2014-Oct-19 22:28N 51°19' E 004°19'0 0.0
2014-Oct-19 21:28N 51°19' E 004°19'0 0.0
2014-Oct-19 20:33N 51°19' E 004°19'0 0.0
2014-Oct-19 19:33N 51°19' E 004°19'0 0.0
2014-Oct-19 18:33N 51°19' E 004°19'0 0.0
2014-Oct-19 17:32N 51°19' E 004°19'0 0.0
2014-Oct-19 16:32N 51°19' E 004°19'0 0.0
2014-Oct-19 15:25N 51°19' E 004°19'0 0.0
2014-Oct-19 14:31N 51°19' E 004°19'0 0.0
2014-Oct-19 13:27N 51°19' E 004°19'1 0.8
2014-Oct-19 12:34N 51°20' E 004°18'1 0.9
2014-Oct-19 11:34N 51°21' E 004°17'2 2.0
2014-Oct-19 10:33N 51°21' E 004°14'10 9.8
2014-Oct-19 09:33N 51°26' E 004°01'1111.3
2014-Oct-19 08:33N 51°24' E 003°43'1010.1
2014-Oct-19 07:34N 51°25' E 003°26'1514.9
2014-Oct-19 06:33N 51°24' E 003°02'1312.7
2014-Oct-19 05:32N 51°22' E 002°42'7 3.1
2014-Oct-19 03:26N 51°26' E 002°34'0 0.1
2014-Oct-19 02:31N 51°26' E 002°34'0 0.0
2014-Oct-19 01:13N 51°26' E 002°34'0 0.0
2014-Oct-19 00:25N 51°26' E 002°34'0 0.0
2014-Oct-18 23:15N 51°26' E 002°34'0 0.1
2014-Oct-18 22:26N 51°26' E 002°34'7 7.2
2014-Oct-18 21:32N 51°21' E 002°26'1919.5
2014-Oct-18 20:34N 51°12' E 001°59'2221.5
2014-Oct-18 19:33N 50°58' E 001°33'9320.7
2014-Oct-18 15:03N 49°46' W 000°00'918.9
2014-Oct-18 14:34N 49°37' W 000°03'1211.6
2014-Oct-18 13:34N 49°28' E 000°08'1 0.5
2014-Oct-18 12:24N 49°28' E 000°08'0 0.0
2014-Oct-18 11:30N 49°28' E 000°08'0 0.0
2014-Oct-18 10:29N 49°28' E 000°08'0 0.0
2014-Oct-18 09:30N 49°28' E 000°08'0 0.0
2014-Oct-18 08:30N 49°28' E 000°08'0 0.0
2014-Oct-18 07:29N 49°28' E 000°08'0 0.0
2014-Oct-18 06:29N 49°28' E 000°08'0 0.0
2014-Oct-18 05:32N 49°28' E 000°08'0 0.0
2014-Oct-18 04:28N 49°28' E 000°08'0 0.0
2014-Oct-18 03:28N 49°28' E 000°08'0 0.0
2014-Oct-18 02:33N 49°28' E 000°08'4 4.3
2014-Oct-18 01:33N 49°30' E 000°03'8 8.3
2014-Oct-18 00:34N 49°35' W 000°07'1211.5
2014-Oct-17 23:33N 49°47' W 000°09'5814.6
2014-Oct-17 19:33N 50°36' E 000°39'3617.6
2014-Oct-17 17:30N 50°59' E 001°23'1717.6
2014-Oct-17 16:33N 51°11' E 001°42'1918.5
2014-Oct-17 15:33N 51°28' E 001°56'1919.0
2014-Oct-17 14:33N 51°41' E 002°17'45618.2
2014-Oct-16 13:33N 57°49' E 010°03'1818.1
2014-Oct-16 12:33N 57°52' E 010°37'1818.1
2014-Oct-16 11:33N 57°40' E 011°02'1918.7
2014-Oct-16 10:33N 57°27' E 011°27'2120.0
2014-Oct-16 09:30N 57°07' E 011°40'2122.0
2014-Oct-16 08:33N 56°48' E 011°54'12317.4
2014-Oct-16 01:28N 54°50' E 010°50'1111.6
2014-Oct-16 00:32N 54°39' E 010°51'2418.7
2014-Oct-15 23:16N 54°30' E 011°30'1520.7
2014-Oct-15 22:33N 54°26' E 011°54'10818.0
2014-Oct-15 16:34N 54°45' E 014°57'2121.1
2014-Oct-15 15:33N 54°53' E 015°31'1017.6
2014-Oct-15 15:00N 54°54' E 015°48'140 2.9 080 / 131008.0 5.4 1.015.011.614.0
2014-Oct-13 15:16N 55°17' E 019°50'1319.0
2014-Oct-13 14:34N 55°09' E 019°31'1918.5
2014-Oct-13 13:34N 54°55' E 019°10'2019.6
2014-Oct-13 12:33N 54°37' E 018°55'1313.0
2014-Oct-13 11:33N 54°32' E 018°35'2 2.3
2014-Oct-13 10:33N 54°33' E 018°31'0 0.0
2014-Oct-13 09:32N 54°33' E 018°31'0 0.0
2014-Oct-13 08:29N 54°33' E 018°31'0 0.0
2014-Oct-13 07:31N 54°33' E 018°31'0 0.0
2014-Oct-13 06:31N 54°33' E 018°31'0 0.0
2014-Oct-13 05:33N 54°33' E 018°31'0 0.0
2014-Oct-13 04:33N 54°33' E 018°31'0 0.0
2014-Oct-13 03:33N 54°33' E 018°31'0 0.0
2014-Oct-13 02:32N 54°33' E 018°31'0 0.0
2014-Oct-13 01:32N 54°33' E 018°31'0 0.0
2014-Oct-13 00:31N 54°33' E 018°31'0 0.0
2014-Oct-12 23:31N 54°33' E 018°31'0 0.0
2014-Oct-12 22:33N 54°33' E 018°31'0 0.0
2014-Oct-12 21:33N 54°33' E 018°31'0 0.0
2014-Oct-12 20:26N 54°33' E 018°31'0 0.0
2014-Oct-12 19:32N 54°33' E 018°31'0 0.0
2014-Oct-12 18:29N 54°33' E 018°31'0 0.0
2014-Oct-12 17:31N 54°33' E 018°31'0 0.0
2014-Oct-12 16:31N 54°33' E 018°31'0 0.0
2014-Oct-12 15:33N 54°33' E 018°31'0 0.0
2014-Oct-12 14:33N 54°33' E 018°31'0 0.0
2014-Oct-12 13:33N 54°33' E 018°31'0 0.0
2014-Oct-12 12:32N 54°33' E 018°31'0 0.0
2014-Oct-12 11:32N 54°33' E 018°31'0 0.0
2014-Oct-12 10:31N 54°33' E 018°31'0 0.0
2014-Oct-12 09:31N 54°33' E 018°31'0 0.0
2014-Oct-12 08:33N 54°33' E 018°31'0 0.0
2014-Oct-12 07:33N 54°33' E 018°31'0 0.0
2014-Oct-12 06:32N 54°33' E 018°31'0 0.0
2014-Oct-12 05:32N 54°33' E 018°31'0 0.0
2014-Oct-12 04:29N 54°33' E 018°31'0 0.0
2014-Oct-12 03:31N 54°33' E 018°31'0 0.0
2014-Oct-12 02:31N 54°33' E 018°31'0 0.0
2014-Oct-12 01:33N 54°33' E 018°31'0 0.0
2014-Oct-12 00:33N 54°33' E 018°31'0 0.0
2014-Oct-11 23:32N 54°33' E 018°31'0 0.0
2014-Oct-11 22:32N 54°33' E 018°31'0 0.0
2014-Oct-11 21:32N 54°33' E 018°31'0 0.0
2014-Oct-11 20:31N 54°33' E 018°31'0 0.0
2014-Oct-11 19:31N 54°33' E 018°31'0 0.0
2014-Oct-11 18:33N 54°33' E 018°31'0 0.0
2014-Oct-11 17:33N 54°33' E 018°31'0 0.0
2014-Oct-11 16:32N 54°33' E 018°31'0 0.0
2014-Oct-11 15:32N 54°33' E 018°31'0 0.0
2014-Oct-11 14:29N 54°33' E 018°31'  

Dump ship's entire track history